sensor_id;sensor_type;location;lat;lon;timestamp;temperature;humidity
30186;DHT22;31152;49.190;8.122;2023-04-01T00:01:02;10.30;99.90
30186;DHT22;31152;49.190;8.122;2023-04-01T00:03:30;10.20;99.90
30186;DHT22;31152;49.190;8.122;2023-04-01T00:06:00;10.20;99.90
30186;DHT22;31152;49.190;8.122;2023-04-01T00:08:27;10.30;99.90
30186;DHT22;31152;49.190;8.122;2023-04-01T00:10:54;10.30;99.90
30186;DHT22;31152;49.190;8.122;2023-04-01T00:13:24;10.40;99.90
30186;DHT22;31152;49.190;8.122;2023-04-01T00:15:52;10.40;99.90
30186;DHT22;31152;49.190;8.122;2023-04-01T00:18:20;10.40;99.90
30186;DHT22;31152;49.190;8.122;2023-04-01T00:20:48;10.40;99.90
30186;DHT22;31152;49.190;8.122;2023-04-01T00:23:16;10.40;99.90
30186;DHT22;31152;49.190;8.122;2023-04-01T00:25:43;10.40;99.90
30186;DHT22;31152;49.190;8.122;2023-04-01T00:28:16;10.40;99.90
30186;DHT22;31152;49.190;8.122;2023-04-01T00:30:45;10.40;99.90
30186;DHT22;31152;49.190;8.122;2023-04-01T00:33:12;10.40;99.90
30186;DHT22;31152;49.190;8.122;2023-04-01T00:35:39;10.40;99.90
30186;DHT22;31152;49.190;8.122;2023-04-01T00:38:06;10.40;99.90
30186;DHT22;31152;49.190;8.122;2023-04-01T00:40:36;10.40;99.90
30186;DHT22;31152;49.190;8.122;2023-04-01T00:43:13;10.40;99.90
30186;DHT22;31152;49.190;8.122;2023-04-01T00:45:41;10.40;99.90
30186;DHT22;31152;49.190;8.122;2023-04-01T00:48:18;10.40;99.90
30186;DHT22;31152;49.190;8.122;2023-04-01T00:50:52;10.40;99.90
30186;DHT22;31152;49.190;8.122;2023-04-01T00:53:21;10.40;99.90
30186;DHT22;31152;49.190;8.122;2023-04-01T00:56:05;10.40;99.90
30186;DHT22;31152;49.190;8.122;2023-04-01T00:58:37;10.50;99.90
30186;DHT22;31152;49.190;8.122;2023-04-01T01:01:06;10.50;99.90
30186;DHT22;31152;49.190;8.122;2023-04-01T01:03:34;10.50;99.90
30186;DHT22;31152;49.190;8.122;2023-04-01T01:08:51;10.40;99.90
30186;DHT22;31152;49.190;8.122;2023-04-01T01:11:29;10.30;99.90
30186;DHT22;31152;49.190;8.122;2023-04-01T01:16:46;10.30;99.90
30186;DHT22;31152;49.190;8.122;2023-04-01T01:27:34;10.30;99.90
30186;DHT22;31152;49.190;8.122;2023-04-01T01:30:16;10.30;99.90
30186;DHT22;31152;49.190;8.122;2023-04-01T01:33:06;10.30;99.90
30186;DHT22;31152;49.190;8.122;2023-04-01T01:35:56;10.30;99.90
30186;DHT22;31152;49.190;8.122;2023-04-01T01:38:28;10.30;99.90
30186;DHT22;31152;49.190;8.122;2023-04-01T01:40:57;10.30;99.90
30186;DHT22;31152;49.190;8.122;2023-04-01T01:43:32;10.30;99.90
30186;DHT22;31152;49.190;8.122;2023-04-01T01:46:04;10.30;99.90
30186;DHT22;31152;49.190;8.122;2023-04-01T01:48:35;10.30;99.90
30186;DHT22;31152;49.190;8.122;2023-04-01T01:51:07;10.30;99.90
30186;DHT22;31152;49.190;8.122;2023-04-01T01:53:37;10.40;99.90
30186;DHT22;31152;49.190;8.122;2023-04-01T01:56:04;10.40;99.90
30186;DHT22;31152;49.190;8.122;2023-04-01T01:58:38;10.40;99.90
30186;DHT22;31152;49.190;8.122;2023-04-01T02:01:13;10.30;99.90
30186;DHT22;31152;49.190;8.122;2023-04-01T02:03:42;10.30;99.90
30186;DHT22;31152;49.190;8.122;2023-04-01T02:06:16;10.30;99.90
30186;DHT22;31152;49.190;8.122;2023-04-01T02:09:02;10.30;99.90
30186;DHT22;31152;49.190;8.122;2023-04-01T02:11:57;10.30;99.90
30186;DHT22;31152;49.190;8.122;2023-04-01T02:14:39;10.20;99.90
30186;DHT22;31152;49.190;8.122;2023-04-01T02:17:19;10.20;99.90
30186;DHT22;31152;49.190;8.122;2023-04-01T02:19:55;10.20;99.90
30186;DHT22;31152;49.190;8.122;2023-04-01T02:22:29;10.20;99.90
30186;DHT22;31152;49.190;8.122;2023-04-01T02:25:13;10.10;99.90
30186;DHT22;31152;49.190;8.122;2023-04-01T02:27:43;10.10;99.90
30186;DHT22;31152;49.190;8.122;2023-04-01T02:30:11;10.10;99.90
30186;DHT22;31152;49.190;8.122;2023-04-01T02:32:39;10.20;99.90
30186;DHT22;31152;49.190;8.122;2023-04-01T02:35:10;10.20;99.90
30186;DHT22;31152;49.190;8.122;2023-04-01T02:37:43;10.10;99.90
30186;DHT22;31152;49.190;8.122;2023-04-01T02:40:16;10.20;99.90
30186;DHT22;31152;49.190;8.122;2023-04-01T02:42:45;10.20;99.90
30186;DHT22;31152;49.190;8.122;2023-04-01T02:45:13;10.30;99.90
30186;DHT22;31152;49.190;8.122;2023-04-01T02:47:40;10.30;99.90
30186;DHT22;31152;49.190;8.122;2023-04-01T02:50:07;10.20;99.90
30186;DHT22;31152;49.190;8.122;2023-04-01T02:52:34;10.30;99.90
30186;DHT22;31152;49.190;8.122;2023-04-01T02:55:01;10.30;99.90
30186;DHT22;31152;49.190;8.122;2023-04-01T02:57:28;10.30;99.90
30186;DHT22;31152;49.190;8.122;2023-04-01T02:59:55;10.40;99.90
30186;DHT22;31152;49.190;8.122;2023-04-01T03:02:22;10.40;99.90
30186;DHT22;31152;49.190;8.122;2023-04-01T03:04:49;10.40;99.90
30186;DHT22;31152;49.190;8.122;2023-04-01T03:07:16;10.40;99.90
30186;DHT22;31152;49.190;8.122;2023-04-01T03:09:42;10.40;99.90
30186;DHT22;31152;49.190;8.122;2023-04-01T03:12:09;10.40;99.90
30186;DHT22;31152;49.190;8.122;2023-04-01T03:14:36;10.40;99.90
30186;DHT22;31152;49.190;8.122;2023-04-01T03:17:03;10.30;99.90
30186;DHT22;31152;49.190;8.122;2023-04-01T03:19:29;10.30;99.90
30186;DHT22;31152;49.190;8.122;2023-04-01T03:21:56;10.40;99.90
30186;DHT22;31152;49.190;8.122;2023-04-01T03:24:23;10.40;99.90
30186;DHT22;31152;49.190;8.122;2023-04-01T03:26:49;10.40;99.90
30186;DHT22;31152;49.190;8.122;2023-04-01T03:29:19;10.40;99.90
30186;DHT22;31152;49.190;8.122;2023-04-01T03:31:45;10.40;99.90
30186;DHT22;31152;49.190;8.122;2023-04-01T03:34:12;10.40;99.90
30186;DHT22;31152;49.190;8.122;2023-04-01T03:36:39;10.40;99.90
30186;DHT22;31152;49.190;8.122;2023-04-01T03:39:06;10.40;99.90
30186;DHT22;31152;49.190;8.122;2023-04-01T03:41:37;10.40;99.90
30186;DHT22;31152;49.190;8.122;2023-04-01T03:44:05;10.40;99.90
30186;DHT22;31152;49.190;8.122;2023-04-01T03:46:31;10.30;99.90
30186;DHT22;31152;49.190;8.122;2023-04-01T03:49:07;10.20;99.90
30186;DHT22;31152;49.190;8.122;2023-04-01T03:51:39;10.20;99.90
30186;DHT22;31152;49.190;8.122;2023-04-01T03:54:06;10.10;99.90
30186;DHT22;31152;49.190;8.122;2023-04-01T03:56:33;9.90;99.90
30186;DHT22;31152;49.190;8.122;2023-04-01T03:59:03;9.90;99.90
30186;DHT22;31152;49.190;8.122;2023-04-01T04:01:30;9.70;99.90
30186;DHT22;31152;49.190;8.122;2023-04-01T04:03:57;9.70;99.90
30186;DHT22;31152;49.190;8.122;2023-04-01T04:06:27;9.60;99.90
30186;DHT22;31152;49.190;8.122;2023-04-01T04:08:54;9.60;99.90
30186;DHT22;31152;49.190;8.122;2023-04-01T04:11:22;9.50;99.90
30186;DHT22;31152;49.190;8.122;2023-04-01T04:13:51;9.40;99.90
30186;DHT22;31152;49.190;8.122;2023-04-01T04:16:21;9.40;99.90
30186;DHT22;31152;49.190;8.122;2023-04-01T04:18:48;9.40;99.90
30186;DHT22;31152;49.190;8.122;2023-04-01T04:21:15;9.30;99.90
30186;DHT22;31152;49.190;8.122;2023-04-01T04:23:42;9.40;99.90
30186;DHT22;31152;49.190;8.122;2023-04-01T04:26:12;9.30;99.90
30186;DHT22;31152;49.190;8.122;2023-04-01T04:28:40;9.30;99.90
30186;DHT22;31152;49.190;8.122;2023-04-01T04:31:07;9.40;99.90
30186;DHT22;31152;49.190;8.122;2023-04-01T04:33:35;9.40;99.90
30186;DHT22;31152;49.190;8.122;2023-04-01T04:36:04;9.50;99.90
30186;DHT22;31152;49.190;8.122;2023-04-01T04:38:31;9.50;99.90
30186;DHT22;31152;49.190;8.122;2023-04-01T04:40:58;9.60;99.90
30186;DHT22;31152;49.190;8.122;2023-04-01T04:43:25;9.60;99.90
30186;DHT22;31152;49.190;8.122;2023-04-01T04:45:51;9.60;99.90
30186;DHT22;31152;49.190;8.122;2023-04-01T04:48:18;9.60;99.90
30186;DHT22;31152;49.190;8.122;2023-04-01T04:50:48;9.70;99.90
30186;DHT22;31152;49.190;8.122;2023-04-01T04:53:19;9.70;99.90
30186;DHT22;31152;49.190;8.122;2023-04-01T04:55:49;9.70;99.90
30186;DHT22;31152;49.190;8.122;2023-04-01T04:58:17;9.70;99.90
30186;DHT22;31152;49.190;8.122;2023-04-01T05:00:44;9.60;99.90
30186;DHT22;31152;49.190;8.122;2023-04-01T05:03:12;9.60;99.90
30186;DHT22;31152;49.190;8.122;2023-04-01T05:05:39;9.60;99.90
30186;DHT22;31152;49.190;8.122;2023-04-01T05:08:06;9.60;99.90
30186;DHT22;31152;49.190;8.122;2023-04-01T05:10:32;9.60;99.90
30186;DHT22;31152;49.190;8.122;2023-04-01T05:12:59;9.60;99.90
30186;DHT22;31152;49.190;8.122;2023-04-01T05:15:26;9.60;99.90
30186;DHT22;31152;49.190;8.122;2023-04-01T05:17:53;9.50;99.90
30186;DHT22;31152;49.190;8.122;2023-04-01T05:20:20;9.50;99.90
30186;DHT22;31152;49.190;8.122;2023-04-01T05:22:49;9.50;99.90
30186;DHT22;31152;49.190;8.122;2023-04-01T05:25:16;9.50;99.90
30186;DHT22;31152;49.190;8.122;2023-04-01T05:27:43;9.50;99.90
30186;DHT22;31152;49.190;8.122;2023-04-01T05:30:10;9.50;99.90
30186;DHT22;31152;49.190;8.122;2023-04-01T05:32:36;9.50;99.90
30186;DHT22;31152;49.190;8.122;2023-04-01T05:35:04;9.50;99.90
30186;DHT22;31152;49.190;8.122;2023-04-01T05:37:30;9.50;99.90
30186;DHT22;31152;49.190;8.122;2023-04-01T05:39:57;9.50;99.90
30186;DHT22;31152;49.190;8.122;2023-04-01T05:42:26;9.50;99.90
30186;DHT22;31152;49.190;8.122;2023-04-01T05:44:55;9.50;99.90
30186;DHT22;31152;49.190;8.122;2023-04-01T05:47:22;9.50;99.90
30186;DHT22;31152;49.190;8.122;2023-04-01T05:49:51;9.50;99.90
30186;DHT22;31152;49.190;8.122;2023-04-01T05:52:18;9.50;99.90
30186;DHT22;31152;49.190;8.122;2023-04-01T05:54:45;9.60;99.90
30186;DHT22;31152;49.190;8.122;2023-04-01T05:57:11;9.60;99.90
30186;DHT22;31152;49.190;8.122;2023-04-01T05:59:38;9.60;99.90
30186;DHT22;31152;49.190;8.122;2023-04-01T06:02:05;9.70;99.90
30186;DHT22;31152;49.190;8.122;2023-04-01T06:04:37;9.70;99.90
30186;DHT22;31152;49.190;8.122;2023-04-01T06:07:15;9.70;99.90
30186;DHT22;31152;49.190;8.122;2023-04-01T06:09:43;9.70;99.90
30186;DHT22;31152;49.190;8.122;2023-04-01T06:20:25;9.60;99.90
30186;DHT22;31152;49.190;8.122;2023-04-01T06:34:17;9.60;99.90
30186;DHT22;31152;49.190;8.122;2023-04-01T06:53:24;9.60;99.90
30186;DHT22;31152;49.190;8.122;2023-04-01T06:56:14;9.70;99.90
30186;DHT22;31152;49.190;8.122;2023-04-01T06:58:53;9.70;99.90
30186;DHT22;31152;49.190;8.122;2023-04-01T07:01:28;9.70;99.90
30186;DHT22;31152;49.190;8.122;2023-04-01T07:04:00;9.70;99.90
30186;DHT22;31152;49.190;8.122;2023-04-01T07:06:39;9.70;99.90
30186;DHT22;31152;49.190;8.122;2023-04-01T07:09:12;9.60;99.90
30186;DHT22;31152;49.190;8.122;2023-04-01T07:11:41;9.60;99.90
30186;DHT22;31152;49.190;8.122;2023-04-01T07:14:31;9.60;99.90
30186;DHT22;31152;49.190;8.122;2023-04-01T07:17:17;9.60;99.90
30186;DHT22;31152;49.190;8.122;2023-04-01T07:27:39;9.60;99.90
30186;DHT22;31152;49.190;8.122;2023-04-01T07:30:17;9.70;99.90
30186;DHT22;31152;49.190;8.122;2023-04-01T07:33:08;9.60;99.90
30186;DHT22;31152;49.190;8.122;2023-04-01T07:41:19;9.40;99.90
30186;DHT22;31152;49.190;8.122;2023-04-01T07:43:56;9.40;99.90
30186;DHT22;31152;49.190;8.122;2023-04-01T07:46:46;9.40;99.90
30186;DHT22;31152;49.190;8.122;2023-04-01T07:49:51;9.40;99.90
30186;DHT22;31152;49.190;8.122;2023-04-01T07:56:12;9.30;99.90
30186;DHT22;31152;49.190;8.122;2023-04-01T08:09:40;9.20;99.90
30186;DHT22;31152;49.190;8.122;2023-04-01T08:12:27;9.20;99.90
30186;DHT22;31152;49.190;8.122;2023-04-01T08:21:02;9.30;99.90
30186;DHT22;31152;49.190;8.122;2023-04-01T08:23:40;9.30;99.90
30186;DHT22;31152;49.190;8.122;2023-04-01T08:32:01;9.40;99.90
30186;DHT22;31152;49.190;8.122;2023-04-01T08:34:50;9.40;99.90
30186;DHT22;31152;49.190;8.122;2023-04-01T08:37:24;9.50;99.90
30186;DHT22;31152;49.190;8.122;2023-04-01T08:40:08;9.50;99.90
30186;DHT22;31152;49.190;8.122;2023-04-01T08:48:36;9.70;99.90
30186;DHT22;31152;49.190;8.122;2023-04-01T08:51:30;9.70;99.90
30186;DHT22;31152;49.190;8.122;2023-04-01T09:20:44;10.10;99.90
30186;DHT22;31152;49.190;8.122;2023-04-01T09:23:38;10.20;99.90
30186;DHT22;31152;49.190;8.122;2023-04-01T09:43:25;10.40;99.90
30186;DHT22;31152;49.190;8.122;2023-04-01T09:46:16;10.50;99.90
30186;DHT22;31152;49.190;8.122;2023-04-01T09:57:41;10.60;99.90
30186;DHT22;31152;49.190;8.122;2023-04-01T10:20:23;10.90;99.90
30186;DHT22;31152;49.190;8.122;2023-04-01T10:23:06;10.90;99.90
30186;DHT22;31152;49.190;8.122;2023-04-01T10:48:37;11.20;99.90
30186;DHT22;31152;49.190;8.122;2023-04-01T10:51:32;11.20;99.90
30186;DHT22;31152;49.190;8.122;2023-04-01T11:00:02;11.20;99.90
30186;DHT22;31152;49.190;8.122;2023-04-01T11:03:02;11.20;99.90
30186;DHT22;31152;49.190;8.122;2023-04-01T11:28:16;11.00;99.90
30186;DHT22;31152;49.190;8.122;2023-04-01T11:31:03;11.10;99.90
30186;DHT22;31152;49.190;8.122;2023-04-01T11:33:44;11.10;99.90
30186;DHT22;31152;49.190;8.122;2023-04-01T11:36:25;11.10;99.90
30186;DHT22;31152;49.190;8.122;2023-04-01T11:39:07;11.10;99.90
30186;DHT22;31152;49.190;8.122;2023-04-01T11:42:01;11.20;99.90
30186;DHT22;31152;49.190;8.122;2023-04-01T11:44:30;11.20;99.90
30186;DHT22;31152;49.190;8.122;2023-04-01T11:47:24;11.30;99.90
30186;DHT22;31152;49.190;8.122;2023-04-01T11:56:19;11.40;99.90
30186;DHT22;31152;49.190;8.122;2023-04-01T12:02:35;11.50;99.90
30186;DHT22;31152;49.190;8.122;2023-04-01T12:08:04;11.60;99.90
30186;DHT22;31152;49.190;8.122;2023-04-01T12:13:40;11.60;99.90
30186;DHT22;31152;49.190;8.122;2023-04-01T12:22:34;11.70;99.90
30186;DHT22;31152;49.190;8.122;2023-04-01T12:27:53;11.80;99.90
30186;DHT22;31152;49.190;8.122;2023-04-01T12:30:33;11.80;99.90
30186;DHT22;31152;49.190;8.122;2023-04-01T12:33:19;11.70;99.90
30186;DHT22;31152;49.190;8.122;2023-04-01T12:41:49;11.60;99.90
30186;DHT22;31152;49.190;8.122;2023-04-01T12:44:33;11.50;99.90
30186;DHT22;31152;49.190;8.122;2023-04-01T12:47:55;11.50;99.90
30186;DHT22;31152;49.190;8.122;2023-04-01T12:50:41;11.40;99.90
30186;DHT22;31152;49.190;8.122;2023-04-01T12:56:21;11.40;99.90
30186;DHT22;31152;49.190;8.122;2023-04-01T13:01:59;11.50;99.90
30186;DHT22;31152;49.190;8.122;2023-04-01T13:04:32;11.60;99.90
30186;DHT22;31152;49.190;8.122;2023-04-01T13:12:45;11.60;99.90
30186;DHT22;31152;49.190;8.122;2023-04-01T13:15:37;11.50;99.90
30186;DHT22;31152;49.190;8.122;2023-04-01T13:23:11;11.40;99.90
30186;DHT22;31152;49.190;8.122;2023-04-01T13:31:45;11.50;99.90
30186;DHT22;31152;49.190;8.122;2023-04-01T13:40:56;11.30;99.90
30186;DHT22;31152;49.190;8.122;2023-04-01T13:43:50;11.30;99.90
30186;DHT22;31152;49.190;8.122;2023-04-01T13:46:34;11.30;99.90
30186;DHT22;31152;49.190;8.122;2023-04-01T13:49:30;11.30;99.90
30186;DHT22;31152;49.190;8.122;2023-04-01T14:03:32;11.40;99.90
30186;DHT22;31152;49.190;8.122;2023-04-01T14:20:22;11.50;99.90
30186;DHT22;31152;49.190;8.122;2023-04-01T14:26:19;11.60;99.90
30186;DHT22;31152;49.190;8.122;2023-04-01T14:31:23;11.40;99.90
30186;DHT22;31152;49.190;8.122;2023-04-01T14:50:18;11.70;99.90
30186;DHT22;31152;49.190;8.122;2023-04-01T14:53:11;11.60;99.90
30186;DHT22;31152;49.190;8.122;2023-04-01T14:58:13;11.50;99.90
30186;DHT22;31152;49.190;8.122;2023-04-01T15:03:49;11.30;99.90
30186;DHT22;31152;49.190;8.122;2023-04-01T15:20:13;11.00;99.90
30186;DHT22;31152;49.190;8.122;2023-04-01T15:23:02;10.90;99.90
30186;DHT22;31152;49.190;8.122;2023-04-01T15:36:05;11.20;99.90
30186;DHT22;31152;49.190;8.122;2023-04-01T15:44:40;11.30;99.90
30186;DHT22;31152;49.190;8.122;2023-04-01T15:47:31;11.30;99.90
30186;DHT22;31152;49.190;8.122;2023-04-01T16:01:40;10.80;99.90
30186;DHT22;31152;49.190;8.122;2023-04-01T16:18:39;11.00;99.90
30186;DHT22;31152;49.190;8.122;2023-04-01T16:21:14;11.00;99.90
30186;DHT22;31152;49.190;8.122;2023-04-01T16:33:23;11.20;99.90
30186;DHT22;31152;49.190;8.122;2023-04-01T16:36:22;11.30;99.90
30186;DHT22;31152;49.190;8.122;2023-04-01T16:39:15;11.20;99.90
30186;DHT22;31152;49.190;8.122;2023-04-01T16:47:57;11.10;99.90
30186;DHT22;31152;49.190;8.122;2023-04-01T16:50:37;11.10;99.90
30186;DHT22;31152;49.190;8.122;2023-04-01T16:55:54;11.00;99.90
30186;DHT22;31152;49.190;8.122;2023-04-01T16:58:57;10.90;99.90
30186;DHT22;31152;49.190;8.122;2023-04-01T17:01:35;10.80;99.90
30186;DHT22;31152;49.190;8.122;2023-04-01T17:04:21;10.80;99.90
30186;DHT22;31152;49.190;8.122;2023-04-01T17:06:55;10.90;99.90
30186;DHT22;31152;49.190;8.122;2023-04-01T17:09:41;10.80;99.90
30186;DHT22;31152;49.190;8.122;2023-04-01T17:15:34;10.70;99.90
30186;DHT22;31152;49.190;8.122;2023-04-01T17:21:10;10.60;99.90
30186;DHT22;31152;49.190;8.122;2023-04-01T17:29:19;10.50;99.90
30186;DHT22;31152;49.190;8.122;2023-04-01T17:32:27;10.50;99.90
30186;DHT22;31152;49.190;8.122;2023-04-01T17:37:54;10.50;99.90
30186;DHT22;31152;49.190;8.122;2023-04-01T17:49:14;10.40;99.90
30186;DHT22;31152;49.190;8.122;2023-04-01T17:51:45;10.30;99.90
30186;DHT22;31152;49.190;8.122;2023-04-01T17:54:33;10.30;99.90
30186;DHT22;31152;49.190;8.122;2023-04-01T18:11:48;10.00;99.90
30186;DHT22;31152;49.190;8.122;2023-04-01T18:24:18;9.90;99.90
30186;DHT22;31152;49.190;8.122;2023-04-01T18:26:51;9.90;99.90
30186;DHT22;31152;49.190;8.122;2023-04-01T18:29:49;9.90;99.90
30186;DHT22;31152;49.190;8.122;2023-04-01T18:32:50;9.90;99.90
30186;DHT22;31152;49.190;8.122;2023-04-01T18:35:57;10.00;99.90
30186;DHT22;31152;49.190;8.122;2023-04-01T18:38:45;9.90;99.90
30186;DHT22;31152;49.190;8.122;2023-04-01T18:41:14;10.00;99.90
30186;DHT22;31152;49.190;8.122;2023-04-01T18:46:49;10.00;99.90
30186;DHT22;31152;49.190;8.122;2023-04-01T18:52:17;10.00;99.90
30186;DHT22;31152;49.190;8.122;2023-04-01T18:55:20;10.00;99.90
30186;DHT22;31152;49.190;8.122;2023-04-01T18:57:52;10.00;99.90
30186;DHT22;31152;49.190;8.122;2023-04-01T19:00:28;10.10;99.90
30186;DHT22;31152;49.190;8.122;2023-04-01T19:03:23;10.10;99.90
30186;DHT22;31152;49.190;8.122;2023-04-01T19:05:52;10.10;99.90
30186;DHT22;31152;49.190;8.122;2023-04-01T19:08:25;10.00;99.90
30186;DHT22;31152;49.190;8.122;2023-04-01T19:16:26;10.10;99.90
30186;DHT22;31152;49.190;8.122;2023-04-01T19:21:49;10.10;99.90
30186;DHT22;31152;49.190;8.122;2023-04-01T19:27:23;10.10;99.90
30186;DHT22;31152;49.190;8.122;2023-04-01T19:30:32;10.10;99.90
30186;DHT22;31152;49.190;8.122;2023-04-01T19:38:40;10.00;99.90
30186;DHT22;31152;49.190;8.122;2023-04-01T19:46:48;10.00;99.90
30186;DHT22;31152;49.190;8.122;2023-04-01T19:52:49;10.10;99.90
30186;DHT22;31152;49.190;8.122;2023-04-01T19:58:05;10.00;99.90
30186;DHT22;31152;49.190;8.122;2023-04-01T20:00:56;10.00;99.90
30186;DHT22;31152;49.190;8.122;2023-04-01T20:04:08;10.00;99.90
30186;DHT22;31152;49.190;8.122;2023-04-01T20:06:52;10.00;99.90
30186;DHT22;31152;49.190;8.122;2023-04-01T20:14:52;9.90;99.90
30186;DHT22;31152;49.190;8.122;2023-04-01T20:17:30;9.90;99.90
30186;DHT22;31152;49.190;8.122;2023-04-01T20:25:25;9.90;99.90
30186;DHT22;31152;49.190;8.122;2023-04-01T20:30:52;10.00;99.90
30186;DHT22;31152;49.190;8.122;2023-04-01T20:33:53;9.90;99.90
30186;DHT22;31152;49.190;8.122;2023-04-01T20:39:26;9.90;99.90
30186;DHT22;31152;49.190;8.122;2023-04-01T20:45:10;9.90;99.90
30186;DHT22;31152;49.190;8.122;2023-04-01T20:53:12;9.90;99.90
30186;DHT22;31152;49.190;8.122;2023-04-01T20:55:57;9.90;99.90
30186;DHT22;31152;49.190;8.122;2023-04-01T21:01:32;9.90;99.90
30186;DHT22;31152;49.190;8.122;2023-04-01T21:10:01;9.90;99.90
30186;DHT22;31152;49.190;8.122;2023-04-01T21:21:58;9.80;99.90
30186;DHT22;31152;49.190;8.122;2023-04-01T21:25:03;9.80;99.90
30186;DHT22;31152;49.190;8.122;2023-04-01T21:30:36;9.80;99.90
30186;DHT22;31152;49.190;8.122;2023-04-01T21:52:43;9.80;99.90
30186;DHT22;31152;49.190;8.122;2023-04-01T22:00:38;9.70;99.90
30186;DHT22;31152;49.190;8.122;2023-04-01T22:03:25;9.70;99.90
30186;DHT22;31152;49.190;8.122;2023-04-01T22:11:44;9.60;99.90
30186;DHT22;31152;49.190;8.122;2023-04-01T22:14:25;9.60;99.90
30186;DHT22;31152;49.190;8.122;2023-04-01T22:25:28;9.50;99.90
30186;DHT22;31152;49.190;8.122;2023-04-01T22:28:07;9.50;99.90
30186;DHT22;31152;49.190;8.122;2023-04-01T22:30:42;9.60;99.90
30186;DHT22;31152;49.190;8.122;2023-04-01T22:33:28;9.60;99.90
30186;DHT22;31152;49.190;8.122;2023-04-01T22:42:32;9.60;99.90
30186;DHT22;31152;49.190;8.122;2023-04-01T22:51:12;9.60;99.90
30186;DHT22;31152;49.190;8.122;2023-04-01T22:56:55;9.70;99.90
30186;DHT22;31152;49.190;8.122;2023-04-01T22:59:51;9.60;99.90
30186;DHT22;31152;49.190;8.122;2023-04-01T23:02:27;9.60;99.90
30186;DHT22;31152;49.190;8.122;2023-04-01T23:05:00;9.60;99.90
30186;DHT22;31152;49.190;8.122;2023-04-01T23:10:41;9.60;99.90
30186;DHT22;31152;49.190;8.122;2023-04-01T23:13:13;9.60;99.90
30186;DHT22;31152;49.190;8.122;2023-04-01T23:15:44;9.60;99.90
30186;DHT22;31152;49.190;8.122;2023-04-01T23:28:54;9.60;99.90
30186;DHT22;31152;49.190;8.122;2023-04-01T23:34:02;9.50;99.90
30186;DHT22;31152;49.190;8.122;2023-04-01T23:36:31;9.40;99.90
30186;DHT22;31152;49.190;8.122;2023-04-01T23:39:09;9.30;99.90
30186;DHT22;31152;49.190;8.122;2023-04-01T23:41:42;9.30;99.90
30186;DHT22;31152;49.190;8.122;2023-04-01T23:44:13;9.20;99.90
30186;DHT22;31152;49.190;8.122;2023-04-01T23:46:42;9.10;99.90
30186;DHT22;31152;49.190;8.122;2023-04-01T23:49:19;9.10;99.90
30186;DHT22;31152;49.190;8.122;2023-04-01T23:52:06;9.10;99.90
30186;DHT22;31152;49.190;8.122;2023-04-01T23:54:51;9.00;99.90
30186;DHT22;31152;49.190;8.122;2023-04-01T23:57:27;8.90;99.90
